sensor_id;sensor_type;location;lat;lon;timestamp;P1;durP1;ratioP1;P2;durP2;ratioP2
40599;SDS011;26309;50.924;4.754;2023-03-26T00:00:39;37.07;;;5.60;;
40599;SDS011;26309;50.924;4.754;2023-03-26T00:03:09;31.13;;;5.33;;
40599;SDS011;26309;50.924;4.754;2023-03-26T00:05:36;22.50;;;5.27;;
40599;SDS011;26309;50.924;4.754;2023-03-26T00:08:03;26.53;;;5.27;;
40599;SDS011;26309;50.924;4.754;2023-03-26T00:10:29;16.00;;;4.93;;
40599;SDS011;26309;50.924;4.754;2023-03-26T00:12:55;23.73;;;5.37;;
40599;SDS011;26309;50.924;4.754;2023-03-26T00:15:21;26.67;;;5.20;;
40599;SDS011;26309;50.924;4.754;2023-03-26T00:17:47;28.20;;;6.17;;
40599;SDS011;26309;50.924;4.754;2023-03-26T00:20:13;28.90;;;5.00;;
40599;SDS011;26309;50.924;4.754;2023-03-26T00:22:39;25.67;;;4.93;;
40599;SDS011;26309;50.924;4.754;2023-03-26T00:25:06;21.30;;;4.55;;
40599;SDS011;26309;50.924;4.754;2023-03-26T00:27:32;21.90;;;4.37;;
40599;SDS011;26309;50.924;4.754;2023-03-26T00:29:58;14.13;;;3.80;;
40599;SDS011;26309;50.924;4.754;2023-03-26T00:32:28;21.67;;;3.70;;
40599;SDS011;26309;50.924;4.754;2023-03-26T00:34:54;13.88;;;3.78;;
40599;SDS011;26309;50.924;4.754;2023-03-26T00:37:22;20.45;;;3.47;;
40599;SDS011;26309;50.924;4.754;2023-03-26T00:39:55;20.15;;;3.53;;
40599;SDS011;26309;50.924;4.754;2023-03-26T00:42:31;16.20;;;3.40;;
40599;SDS011;26309;50.924;4.754;2023-03-26T00:44:58;22.00;;;3.63;;
40599;SDS011;26309;50.924;4.754;2023-03-26T00:47:25;17.98;;;3.55;;
40599;SDS011;26309;50.924;4.754;2023-03-26T00:49:52;16.85;;;3.00;;
40599;SDS011;26309;50.924;4.754;2023-03-26T00:52:19;11.82;;;3.00;;
40599;SDS011;26309;50.924;4.754;2023-03-26T00:54:45;18.00;;;3.27;;
40599;SDS011;26309;50.924;4.754;2023-03-26T00:57:13;17.65;;;3.53;;
40599;SDS011;26309;50.924;4.754;2023-03-26T00:59:39;21.93;;;3.03;;
40599;SDS011;26309;50.924;4.754;2023-03-26T01:02:06;15.33;;;3.43;;
40599;SDS011;26309;50.924;4.754;2023-03-26T01:04:36;19.70;;;3.40;;
40599;SDS011;26309;50.924;4.754;2023-03-26T01:07:12;17.73;;;3.00;;
40599;SDS011;26309;50.924;4.754;2023-03-26T01:09:42;10.50;;;2.88;;
40599;SDS011;26309;50.924;4.754;2023-03-26T01:12:16;19.13;;;3.47;;
40599;SDS011;26309;50.924;4.754;2023-03-26T01:14:48;20.38;;;3.47;;
40599;SDS011;26309;50.924;4.754;2023-03-26T01:17:15;18.73;;;3.70;;
40599;SDS011;26309;50.924;4.754;2023-03-26T01:22:23;17.00;;;3.42;;
40599;SDS011;26309;50.924;4.754;2023-03-26T01:24:51;18.77;;;3.53;;
40599;SDS011;26309;50.924;4.754;2023-03-26T01:29:54;13.70;;;3.27;;
40599;SDS011;26309;50.924;4.754;2023-03-26T01:35:25;18.70;;;4.03;;
40599;SDS011;26309;50.924;4.754;2023-03-26T01:41:03;14.73;;;3.33;;
40599;SDS011;26309;50.924;4.754;2023-03-26T01:46:10;18.77;;;4.20;;
40599;SDS011;26309;50.924;4.754;2023-03-26T01:48:38;21.30;;;4.13;;
40599;SDS011;26309;50.924;4.754;2023-03-26T01:51:07;20.20;;;4.10;;
40599;SDS011;26309;50.924;4.754;2023-03-26T01:53:36;22.38;;;4.45;;
40599;SDS011;26309;50.924;4.754;2023-03-26T02:04:37;28.67;;;5.00;;
40599;SDS011;26309;50.924;4.754;2023-03-26T02:07:31;23.30;;;4.25;;
40599;SDS011;26309;50.924;4.754;2023-03-26T02:10:10;21.80;;;4.63;;
40599;SDS011;26309;50.924;4.754;2023-03-26T02:12:41;19.40;;;4.47;;
40599;SDS011;26309;50.924;4.754;2023-03-26T02:15:09;21.13;;;4.53;;
40599;SDS011;26309;50.924;4.754;2023-03-26T02:17:36;21.07;;;4.07;;
40599;SDS011;26309;50.924;4.754;2023-03-26T02:20:06;25.13;;;4.77;;
40599;SDS011;26309;50.924;4.754;2023-03-26T02:22:36;18.10;;;4.30;;
40599;SDS011;26309;50.924;4.754;2023-03-26T02:25:08;17.73;;;3.70;;
40599;SDS011;26309;50.924;4.754;2023-03-26T02:27:36;16.90;;;4.47;;
40599;SDS011;26309;50.924;4.754;2023-03-26T02:30:05;20.30;;;4.35;;
40599;SDS011;26309;50.924;4.754;2023-03-26T02:32:34;21.17;;;4.33;;
40599;SDS011;26309;50.924;4.754;2023-03-26T02:35:00;26.40;;;4.53;;
40599;SDS011;26309;50.924;4.754;2023-03-26T02:37:26;24.83;;;4.23;;
40599;SDS011;26309;50.924;4.754;2023-03-26T02:39:54;19.00;;;4.17;;
40599;SDS011;26309;50.924;4.754;2023-03-26T02:42:20;19.77;;;4.17;;
40599;SDS011;26309;50.924;4.754;2023-03-26T02:44:46;16.63;;;4.10;;
40599;SDS011;26309;50.924;4.754;2023-03-26T02:47:12;18.13;;;4.00;;
40599;SDS011;26309;50.924;4.754;2023-03-26T02:49:38;21.03;;;4.60;;
40599;SDS011;26309;50.924;4.754;2023-03-26T02:52:04;19.87;;;4.37;;
40599;SDS011;26309;50.924;4.754;2023-03-26T02:54:31;20.70;;;4.47;;
40599;SDS011;26309;50.924;4.754;2023-03-26T02:56:58;24.00;;;3.70;;
40599;SDS011;26309;50.924;4.754;2023-03-26T02:59:24;14.40;;;3.70;;
40599;SDS011;26309;50.924;4.754;2023-03-26T03:01:51;14.47;;;3.30;;
40599;SDS011;26309;50.924;4.754;2023-03-26T03:04:17;15.77;;;3.60;;
40599;SDS011;26309;50.924;4.754;2023-03-26T03:06:43;21.70;;;4.17;;
40599;SDS011;26309;50.924;4.754;2023-03-26T03:09:09;19.63;;;3.90;;
40599;SDS011;26309;50.924;4.754;2023-03-26T03:11:36;14.77;;;3.70;;
40599;SDS011;26309;50.924;4.754;2023-03-26T03:14:04;18.93;;;3.27;;
40599;SDS011;26309;50.924;4.754;2023-03-26T03:16:30;11.50;;;3.77;;
40599;SDS011;26309;50.924;4.754;2023-03-26T03:18:57;20.47;;;3.93;;
40599;SDS011;26309;50.924;4.754;2023-03-26T03:21:23;15.70;;;4.37;;
40599;SDS011;26309;50.924;4.754;2023-03-26T03:23:51;16.03;;;3.80;;
40599;SDS011;26309;50.924;4.754;2023-03-26T03:26:18;19.00;;;3.90;;
40599;SDS011;26309;50.924;4.754;2023-03-26T03:28:47;20.20;;;4.03;;
40599;SDS011;26309;50.924;4.754;2023-03-26T03:31:14;18.13;;;3.87;;
40599;SDS011;26309;50.924;4.754;2023-03-26T03:33:40;19.00;;;4.35;;
40599;SDS011;26309;50.924;4.754;2023-03-26T03:36:10;19.30;;;4.10;;
40599;SDS011;26309;50.924;4.754;2023-03-26T03:38:38;16.43;;;3.70;;
40599;SDS011;26309;50.924;4.754;2023-03-26T03:41:05;19.00;;;3.53;;
40599;SDS011;26309;50.924;4.754;2023-03-26T03:43:32;18.23;;;4.07;;
40599;SDS011;26309;50.924;4.754;2023-03-26T03:45:58;19.67;;;3.73;;
40599;SDS011;26309;50.924;4.754;2023-03-26T03:48:25;19.23;;;4.00;;
40599;SDS011;26309;50.924;4.754;2023-03-26T03:50:52;19.67;;;3.88;;
40599;SDS011;26309;50.924;4.754;2023-03-26T03:53:19;18.00;;;3.83;;
40599;SDS011;26309;50.924;4.754;2023-03-26T03:55:56;14.57;;;4.00;;
40599;SDS011;26309;50.924;4.754;2023-03-26T03:58:23;18.87;;;3.70;;
40599;SDS011;26309;50.924;4.754;2023-03-26T04:00:53;18.03;;;3.60;;
40599;SDS011;26309;50.924;4.754;2023-03-26T04:03:28;16.83;;;4.10;;
40599;SDS011;26309;50.924;4.754;2023-03-26T04:08:24;17.53;;;4.37;;
40599;SDS011;26309;50.924;4.754;2023-03-26T04:10:50;24.43;;;4.10;;
40599;SDS011;26309;50.924;4.754;2023-03-26T04:13:16;21.20;;;3.87;;
40599;SDS011;26309;50.924;4.754;2023-03-26T04:15:42;19.87;;;4.30;;
40599;SDS011;26309;50.924;4.754;2023-03-26T04:18:08;21.87;;;4.17;;
40599;SDS011;26309;50.924;4.754;2023-03-26T04:20:36;15.40;;;4.00;;
40599;SDS011;26309;50.924;4.754;2023-03-26T04:23:11;15.33;;;3.70;;
40599;SDS011;26309;50.924;4.754;2023-03-26T04:25:39;14.77;;;3.83;;
40599;SDS011;26309;50.924;4.754;2023-03-26T04:28:08;21.60;;;3.83;;
40599;SDS011;26309;50.924;4.754;2023-03-26T04:30:35;16.60;;;3.87;;
40599;SDS011;26309;50.924;4.754;2023-03-26T04:33:02;17.20;;;3.60;;
40599;SDS011;26309;50.924;4.754;2023-03-26T04:35:33;17.40;;;4.13;;
40599;SDS011;26309;50.924;4.754;2023-03-26T04:38:02;14.43;;;3.93;;
40599;SDS011;26309;50.924;4.754;2023-03-26T04:40:32;19.80;;;4.07;;
40599;SDS011;26309;50.924;4.754;2023-03-26T04:43:01;17.57;;;3.77;;
40599;SDS011;26309;50.924;4.754;2023-03-26T04:45:28;21.47;;;3.80;;
40599;SDS011;26309;50.924;4.754;2023-03-26T04:48:00;18.17;;;3.83;;
40599;SDS011;26309;50.924;4.754;2023-03-26T04:50:26;21.30;;;3.87;;
40599;SDS011;26309;50.924;4.754;2023-03-26T04:52:52;16.17;;;3.60;;
40599;SDS011;26309;50.924;4.754;2023-03-26T04:55:42;17.80;;;3.97;;
40599;SDS011;26309;50.924;4.754;2023-03-26T04:58:17;20.23;;;4.30;;
40599;SDS011;26309;50.924;4.754;2023-03-26T05:00:43;15.47;;;4.17;;
40599;SDS011;26309;50.924;4.754;2023-03-26T05:03:11;13.80;;;3.23;;
40599;SDS011;26309;50.924;4.754;2023-03-26T05:05:38;11.30;;;3.00;;
40599;SDS011;26309;50.924;4.754;2023-03-26T05:08:04;25.23;;;3.67;;
40599;SDS011;26309;50.924;4.754;2023-03-26T05:10:31;11.50;;;3.33;;
40599;SDS011;26309;50.924;4.754;2023-03-26T05:12:57;15.07;;;3.40;;
40599;SDS011;26309;50.924;4.754;2023-03-26T05:15:23;17.00;;;3.42;;
40599;SDS011;26309;50.924;4.754;2023-03-26T05:17:49;16.75;;;4.05;;
40599;SDS011;26309;50.924;4.754;2023-03-26T05:20:24;21.80;;;3.95;;
40599;SDS011;26309;50.924;4.754;2023-03-26T05:22:53;18.80;;;3.83;;
40599;SDS011;26309;50.924;4.754;2023-03-26T05:25:20;13.80;;;3.30;;
40599;SDS011;26309;50.924;4.754;2023-03-26T05:27:46;22.55;;;4.13;;
40599;SDS011;26309;50.924;4.754;2023-03-26T05:30:18;18.40;;;3.58;;
40599;SDS011;26309;50.924;4.754;2023-03-26T05:32:45;16.30;;;3.80;;
40599;SDS011;26309;50.924;4.754;2023-03-26T05:35:16;18.52;;;3.40;;
40599;SDS011;26309;50.924;4.754;2023-03-26T05:37:42;19.33;;;3.78;;
40599;SDS011;26309;50.924;4.754;2023-03-26T05:40:09;15.43;;;3.63;;
40599;SDS011;26309;50.924;4.754;2023-03-26T05:42:38;12.27;;;3.63;;
40599;SDS011;26309;50.924;4.754;2023-03-26T05:45:05;17.40;;;3.90;;
40599;SDS011;26309;50.924;4.754;2023-03-26T05:47:32;17.35;;;3.45;;
40599;SDS011;26309;50.924;4.754;2023-03-26T05:49:58;19.05;;;3.90;;
40599;SDS011;26309;50.924;4.754;2023-03-26T05:52:24;23.38;;;3.13;;
40599;SDS011;26309;50.924;4.754;2023-03-26T05:54:50;12.43;;;3.13;;
40599;SDS011;26309;50.924;4.754;2023-03-26T05:57:16;16.33;;;3.38;;
40599;SDS011;26309;50.924;4.754;2023-03-26T05:59:42;15.38;;;3.22;;
40599;SDS011;26309;50.924;4.754;2023-03-26T06:02:09;14.88;;;3.10;;
40599;SDS011;26309;50.924;4.754;2023-03-26T06:04:35;15.10;;;3.15;;
40599;SDS011;26309;50.924;4.754;2023-03-26T06:07:10;17.03;;;3.50;;
40599;SDS011;26309;50.924;4.754;2023-03-26T06:09:36;11.20;;;2.90;;
40599;SDS011;26309;50.924;4.754;2023-03-26T06:12:04;14.50;;;3.03;;
40599;SDS011;26309;50.924;4.754;2023-03-26T06:14:31;14.07;;;2.80;;
40599;SDS011;26309;50.924;4.754;2023-03-26T06:16:57;14.00;;;2.83;;
40599;SDS011;26309;50.924;4.754;2023-03-26T06:19:23;14.17;;;3.07;;
40599;SDS011;26309;50.924;4.754;2023-03-26T06:21:49;10.33;;;2.70;;
40599;SDS011;26309;50.924;4.754;2023-03-26T06:24:15;10.90;;;2.60;;
40599;SDS011;26309;50.924;4.754;2023-03-26T06:26:41;13.68;;;2.60;;
40599;SDS011;26309;50.924;4.754;2023-03-26T06:29:07;8.47;;;2.73;;
40599;SDS011;26309;50.924;4.754;2023-03-26T06:31:33;9.20;;;3.20;;
40599;SDS011;26309;50.924;4.754;2023-03-26T06:33:59;11.93;;;3.43;;
40599;SDS011;26309;50.924;4.754;2023-03-26T06:36:25;7.73;;;2.63;;
40599;SDS011;26309;50.924;4.754;2023-03-26T06:38:51;9.03;;;2.57;;
40599;SDS011;26309;50.924;4.754;2023-03-26T06:41:17;7.72;;;2.80;;
40599;SDS011;26309;50.924;4.754;2023-03-26T06:43:43;12.67;;;2.90;;
40599;SDS011;26309;50.924;4.754;2023-03-26T06:46:09;14.47;;;2.97;;
40599;SDS011;26309;50.924;4.754;2023-03-26T06:48:35;10.80;;;2.67;;
40599;SDS011;26309;50.924;4.754;2023-03-26T06:51:01;13.90;;;2.83;;
40599;SDS011;26309;50.924;4.754;2023-03-26T06:53:27;7.20;;;2.40;;
40599;SDS011;26309;50.924;4.754;2023-03-26T06:55:52;15.53;;;3.37;;
40599;SDS011;26309;50.924;4.754;2023-03-26T06:58:20;8.40;;;2.50;;
40599;SDS011;26309;50.924;4.754;2023-03-26T07:00:51;14.50;;;2.73;;
40599;SDS011;26309;50.924;4.754;2023-03-26T07:03:19;13.57;;;3.03;;
40599;SDS011;26309;50.924;4.754;2023-03-26T07:05:46;8.97;;;2.60;;
40599;SDS011;26309;50.924;4.754;2023-03-26T07:08:13;14.63;;;2.93;;
40599;SDS011;26309;50.924;4.754;2023-03-26T07:10:40;11.20;;;2.43;;
40599;SDS011;26309;50.924;4.754;2023-03-26T07:13:06;13.13;;;2.50;;
40599;SDS011;26309;50.924;4.754;2023-03-26T07:15:32;10.63;;;2.87;;
40599;SDS011;26309;50.924;4.754;2023-03-26T07:17:58;9.20;;;2.37;;
40599;SDS011;26309;50.924;4.754;2023-03-26T07:20:24;7.67;;;2.60;;
40599;SDS011;26309;50.924;4.754;2023-03-26T07:22:58;9.23;;;2.83;;
40599;SDS011;26309;50.924;4.754;2023-03-26T07:25:25;17.70;;;2.83;;
40599;SDS011;26309;50.924;4.754;2023-03-26T07:37:24;7.80;;;2.27;;
40599;SDS011;26309;50.924;4.754;2023-03-26T07:42:14;6.40;;;1.87;;
40599;SDS011;26309;50.924;4.754;2023-03-26T07:47:33;10.93;;;2.80;;
40599;SDS011;26309;50.924;4.754;2023-03-26T07:49:59;5.57;;;2.40;;
40599;SDS011;26309;50.924;4.754;2023-03-26T07:52:25;4.53;;;2.20;;
40599;SDS011;26309;50.924;4.754;2023-03-26T07:54:52;9.17;;;2.13;;
40599;SDS011;26309;50.924;4.754;2023-03-26T07:59:51;9.97;;;2.40;;
40599;SDS011;26309;50.924;4.754;2023-03-26T08:05:41;11.07;;;2.57;;
40599;SDS011;26309;50.924;4.754;2023-03-26T08:08:17;8.77;;;2.43;;
40599;SDS011;26309;50.924;4.754;2023-03-26T08:18:48;8.47;;;2.10;;
40599;SDS011;26309;50.924;4.754;2023-03-26T08:21:26;6.57;;;2.43;;
40599;SDS011;26309;50.924;4.754;2023-03-26T08:27:10;7.27;;;2.40;;
40599;SDS011;26309;50.924;4.754;2023-03-26T08:32:35;8.80;;;2.23;;
40599;SDS011;26309;50.924;4.754;2023-03-26T08:35:02;8.43;;;2.40;;
40599;SDS011;26309;50.924;4.754;2023-03-26T08:37:30;6.37;;;2.10;;
40599;SDS011;26309;50.924;4.754;2023-03-26T08:39:56;8.80;;;2.50;;
40599;SDS011;26309;50.924;4.754;2023-03-26T08:43:08;6.47;;;2.13;;
40599;SDS011;26309;50.924;4.754;2023-03-26T08:45:15;5.43;;;1.80;;
40599;SDS011;26309;50.924;4.754;2023-03-26T08:55:57;6.23;;;2.10;;
40599;SDS011;26309;50.924;4.754;2023-03-26T09:07:12;5.87;;;1.73;;
40599;SDS011;26309;50.924;4.754;2023-03-26T09:19:05;6.27;;;1.93;;
40599;SDS011;26309;50.924;4.754;2023-03-26T09:33:58;4.33;;;1.73;;
40599;SDS011;26309;50.924;4.754;2023-03-26T09:42:29;5.87;;;1.77;;
40599;SDS011;26309;50.924;4.754;2023-03-26T09:45:25;6.70;;;2.10;;
40599;SDS011;26309;50.924;4.754;2023-03-26T09:54:31;6.70;;;2.70;;
40599;SDS011;26309;50.924;4.754;2023-03-26T10:00:14;5.13;;;2.40;;
40599;SDS011;26309;50.924;4.754;2023-03-26T10:08:38;3.87;;;1.93;;
40599;SDS011;26309;50.924;4.754;2023-03-26T10:22:43;6.70;;;2.37;;
40599;SDS011;26309;50.924;4.754;2023-03-26T10:39:49;7.43;;;3.13;;
40599;SDS011;26309;50.924;4.754;2023-03-26T10:55:58;6.67;;;3.60;;
40599;SDS011;26309;50.924;4.754;2023-03-26T10:58:33;6.47;;;4.00;;
40599;SDS011;26309;50.924;4.754;2023-03-26T11:01:01;6.03;;;3.20;;
40599;SDS011;26309;50.924;4.754;2023-03-26T11:03:47;4.07;;;3.03;;
40599;SDS011;26309;50.924;4.754;2023-03-26T11:23:12;4.93;;;2.67;;
40599;SDS011;26309;50.924;4.754;2023-03-26T11:28:40;4.40;;;2.87;;
40599;SDS011;26309;50.924;4.754;2023-03-26T11:33:50;4.93;;;3.03;;
40599;SDS011;26309;50.924;4.754;2023-03-26T11:36:24;4.80;;;2.63;;
40599;SDS011;26309;50.924;4.754;2023-03-26T11:38:56;4.17;;;2.80;;
40599;SDS011;26309;50.924;4.754;2023-03-26T11:41:26;6.33;;;2.60;;
40599;SDS011;26309;50.924;4.754;2023-03-26T11:43:56;7.03;;;2.60;;
40599;SDS011;26309;50.924;4.754;2023-03-26T11:46:30;6.27;;;2.63;;
40599;SDS011;26309;50.924;4.754;2023-03-26T11:49:04;3.20;;;2.37;;
40599;SDS011;26309;50.924;4.754;2023-03-26T11:51:35;5.17;;;2.70;;
40599;SDS011;26309;50.924;4.754;2023-03-26T11:54:11;3.97;;;2.50;;
40599;SDS011;26309;50.924;4.754;2023-03-26T11:56:47;5.50;;;2.40;;
40599;SDS011;26309;50.924;4.754;2023-03-26T12:02:17;3.73;;;2.07;;
40599;SDS011;26309;50.924;4.754;2023-03-26T12:05:04;4.90;;;2.10;;
40599;SDS011;26309;50.924;4.754;2023-03-26T12:07:44;5.00;;;2.40;;
40599;SDS011;26309;50.924;4.754;2023-03-26T12:10:56;4.20;;;2.20;;
40599;SDS011;26309;50.924;4.754;2023-03-26T12:13:32;3.10;;;2.13;;
40599;SDS011;26309;50.924;4.754;2023-03-26T12:16:03;5.30;;;2.03;;
40599;SDS011;26309;50.924;4.754;2023-03-26T12:18:34;4.97;;;2.00;;
40599;SDS011;26309;50.924;4.754;2023-03-26T12:21:05;4.50;;;1.87;;
40599;SDS011;26309;50.924;4.754;2023-03-26T12:23:55;3.57;;;1.90;;
40599;SDS011;26309;50.924;4.754;2023-03-26T12:26:42;2.33;;;1.90;;
40599;SDS011;26309;50.924;4.754;2023-03-26T12:29:13;3.10;;;2.00;;
40599;SDS011;26309;50.924;4.754;2023-03-26T12:34:39;2.40;;;1.90;;
40599;SDS011;26309;50.924;4.754;2023-03-26T12:37:06;2.27;;;1.87;;
40599;SDS011;26309;50.924;4.754;2023-03-26T12:40:03;3.47;;;1.60;;
40599;SDS011;26309;50.924;4.754;2023-03-26T12:42:53;2.33;;;1.77;;
40599;SDS011;26309;50.924;4.754;2023-03-26T12:45:21;2.13;;;1.83;;
40599;SDS011;26309;50.924;4.754;2023-03-26T12:47:52;2.73;;;2.03;;
40599;SDS011;26309;50.924;4.754;2023-03-26T12:50:20;4.20;;;1.60;;
40599;SDS011;26309;50.924;4.754;2023-03-26T12:52:59;3.20;;;1.73;;
40599;SDS011;26309;50.924;4.754;2023-03-26T12:55:41;1.80;;;1.70;;
40599;SDS011;26309;50.924;4.754;2023-03-26T12:58:42;2.63;;;1.50;;
40599;SDS011;26309;50.924;4.754;2023-03-26T13:01:20;4.88;;;2.20;;
40599;SDS011;26309;50.924;4.754;2023-03-26T13:06:53;2.53;;;1.70;;
40599;SDS011;26309;50.924;4.754;2023-03-26T13:12:09;2.90;;;1.70;;
40599;SDS011;26309;50.924;4.754;2023-03-26T13:14:52;3.93;;;1.90;;
40599;SDS011;26309;50.924;4.754;2023-03-26T13:17:22;2.93;;;1.80;;
40599;SDS011;26309;50.924;4.754;2023-03-26T13:20:05;3.20;;;1.83;;
40599;SDS011;26309;50.924;4.754;2023-03-26T13:33:38;2.20;;;1.40;;
40599;SDS011;26309;50.924;4.754;2023-03-26T13:39:12;1.60;;;1.50;;
40599;SDS011;26309;50.924;4.754;2023-03-26T13:44:49;1.60;;;1.50;;
40599;SDS011;26309;50.924;4.754;2023-03-26T13:47:37;2.42;;;1.95;;
40599;SDS011;26309;50.924;4.754;2023-03-26T13:50:24;4.45;;;1.98;;
40599;SDS011;26309;50.924;4.754;2023-03-26T13:58:36;3.17;;;2.50;;
40599;SDS011;26309;50.924;4.754;2023-03-26T14:01:08;33.20;;;9.30;;
40599;SDS011;26309;50.924;4.754;2023-03-26T14:06:42;7.20;;;3.53;;
40599;SDS011;26309;50.924;4.754;2023-03-26T14:09:18;2.10;;;1.90;;
40599;SDS011;26309;50.924;4.754;2023-03-26T14:16:52;3.50;;;1.50;;
40599;SDS011;26309;50.924;4.754;2023-03-26T14:31:04;2.83;;;1.60;;
40599;SDS011;26309;50.924;4.754;2023-03-26T14:36:32;1.23;;;1.17;;
40599;SDS011;26309;50.924;4.754;2023-03-26T14:45:02;1.67;;;1.50;;
40599;SDS011;26309;50.924;4.754;2023-03-26T14:47:37;1.67;;;1.57;;
40599;SDS011;26309;50.924;4.754;2023-03-26T14:53:17;2.43;;;1.90;;
40599;SDS011;26309;50.924;4.754;2023-03-26T15:07:01;2.43;;;1.73;;
40599;SDS011;26309;50.924;4.754;2023-03-26T15:09:58;2.47;;;1.90;;
40599;SDS011;26309;50.924;4.754;2023-03-26T15:16:04;3.67;;;2.30;;
40599;SDS011;26309;50.924;4.754;2023-03-26T15:50:55;8.13;;;3.80;;
40599;SDS011;26309;50.924;4.754;2023-03-26T15:56:42;6.73;;;4.23;;
40599;SDS011;26309;50.924;4.754;2023-03-26T16:04:55;8.50;;;5.73;;
40599;SDS011;26309;50.924;4.754;2023-03-26T16:07:47;13.03;;;6.57;;
40599;SDS011;26309;50.924;4.754;2023-03-26T16:21:35;21.63;;;9.20;;
40599;SDS011;26309;50.924;4.754;2023-03-26T16:24:15;17.70;;;8.93;;
40599;SDS011;26309;50.924;4.754;2023-03-26T16:29:32;20.13;;;8.33;;
40599;SDS011;26309;50.924;4.754;2023-03-26T16:37:39;22.40;;;8.47;;
40599;SDS011;26309;50.924;4.754;2023-03-26T16:50:48;23.73;;;7.87;;
40599;SDS011;26309;50.924;4.754;2023-03-26T16:53:32;17.77;;;7.33;;
40599;SDS011;26309;50.924;4.754;2023-03-26T16:56:25;23.57;;;7.93;;
40599;SDS011;26309;50.924;4.754;2023-03-26T16:59:00;23.73;;;6.63;;
40599;SDS011;26309;50.924;4.754;2023-03-26T17:01:46;22.67;;;7.20;;
40599;SDS011;26309;50.924;4.754;2023-03-26T17:04:22;18.30;;;6.70;;
40599;SDS011;26309;50.924;4.754;2023-03-26T17:12:17;21.57;;;6.73;;
40599;SDS011;26309;50.924;4.754;2023-03-26T17:20:56;20.47;;;6.10;;
40599;SDS011;26309;50.924;4.754;2023-03-26T17:23:58;22.47;;;5.80;;
40599;SDS011;26309;50.924;4.754;2023-03-26T17:32:11;16.53;;;6.57;;
40599;SDS011;26309;50.924;4.754;2023-03-26T17:37:58;20.53;;;5.77;;
40599;SDS011;26309;50.924;4.754;2023-03-26T17:40:30;18.90;;;4.93;;
40599;SDS011;26309;50.924;4.754;2023-03-26T17:43:09;16.30;;;4.47;;
40599;SDS011;26309;50.924;4.754;2023-03-26T17:48:15;22.30;;;4.57;;
40599;SDS011;26309;50.924;4.754;2023-03-26T17:53:52;15.20;;;3.87;;
40599;SDS011;26309;50.924;4.754;2023-03-26T17:56:20;21.07;;;4.00;;
40599;SDS011;26309;50.924;4.754;2023-03-26T17:58:53;16.67;;;4.17;;
40599;SDS011;26309;50.924;4.754;2023-03-26T18:01:32;19.97;;;3.70;;
40599;SDS011;26309;50.924;4.754;2023-03-26T18:04:20;14.53;;;3.80;;
40599;SDS011;26309;50.924;4.754;2023-03-26T18:18:36;9.10;;;2.97;;
40599;SDS011;26309;50.924;4.754;2023-03-26T18:24:17;16.50;;;3.60;;
40599;SDS011;26309;50.924;4.754;2023-03-26T18:26:53;10.63;;;3.07;;
40599;SDS011;26309;50.924;4.754;2023-03-26T18:29:27;18.67;;;3.47;;
40599;SDS011;26309;50.924;4.754;2023-03-26T18:31:55;15.57;;;3.13;;
40599;SDS011;26309;50.924;4.754;2023-03-26T18:34:24;9.47;;;3.43;;
40599;SDS011;26309;50.924;4.754;2023-03-26T18:42:23;25.67;;;13.63;;
40599;SDS011;26309;50.924;4.754;2023-03-26T18:44:51;10.33;;;3.13;;
40599;SDS011;26309;50.924;4.754;2023-03-26T18:47:18;15.63;;;3.07;;
40599;SDS011;26309;50.924;4.754;2023-03-26T18:49:45;10.10;;;2.80;;
40599;SDS011;26309;50.924;4.754;2023-03-26T18:52:14;17.10;;;3.27;;
40599;SDS011;26309;50.924;4.754;2023-03-26T18:54:45;8.43;;;2.97;;
40599;SDS011;26309;50.924;4.754;2023-03-26T18:57:25;9.70;;;2.80;;
40599;SDS011;26309;50.924;4.754;2023-03-26T18:59:53;13.30;;;3.03;;
40599;SDS011;26309;50.924;4.754;2023-03-26T19:02:21;11.03;;;2.80;;
40599;SDS011;26309;50.924;4.754;2023-03-26T19:04:49;14.77;;;3.33;;
40599;SDS011;26309;50.924;4.754;2023-03-26T19:07:23;8.83;;;3.10;;
40599;SDS011;26309;50.924;4.754;2023-03-26T19:09:50;8.83;;;2.53;;
40599;SDS011;26309;50.924;4.754;2023-03-26T19:12:21;6.87;;;2.87;;
40599;SDS011;26309;50.924;4.754;2023-03-26T19:14:57;12.67;;;3.20;;
40599;SDS011;26309;50.924;4.754;2023-03-26T19:17:29;15.47;;;3.07;;
40599;SDS011;26309;50.924;4.754;2023-03-26T19:20:02;11.50;;;2.93;;
40599;SDS011;26309;50.924;4.754;2023-03-26T19:22:33;15.27;;;3.20;;
40599;SDS011;26309;50.924;4.754;2023-03-26T19:25:00;11.47;;;3.07;;
40599;SDS011;26309;50.924;4.754;2023-03-26T19:27:27;11.63;;;3.63;;
40599;SDS011;26309;50.924;4.754;2023-03-26T19:29:53;12.67;;;3.07;;
40599;SDS011;26309;50.924;4.754;2023-03-26T19:32:29;10.47;;;2.93;;
40599;SDS011;26309;50.924;4.754;2023-03-26T19:34:57;17.37;;;3.77;;
40599;SDS011;26309;50.924;4.754;2023-03-26T19:37:25;11.03;;;2.90;;
40599;SDS011;26309;50.924;4.754;2023-03-26T19:39:59;12.97;;;2.80;;
40599;SDS011;26309;50.924;4.754;2023-03-26T19:42:36;13.07;;;2.70;;
40599;SDS011;26309;50.924;4.754;2023-03-26T19:45:03;15.27;;;3.03;;
40599;SDS011;26309;50.924;4.754;2023-03-26T19:47:37;17.70;;;3.50;;
40599;SDS011;26309;50.924;4.754;2023-03-26T19:50:39;9.67;;;2.90;;
40599;SDS011;26309;50.924;4.754;2023-03-26T19:53:10;7.87;;;2.50;;
40599;SDS011;26309;50.924;4.754;2023-03-26T19:58:39;9.67;;;3.07;;
40599;SDS011;26309;50.924;4.754;2023-03-26T20:01:17;9.90;;;2.97;;
40599;SDS011;26309;50.924;4.754;2023-03-26T20:03:46;15.90;;;3.50;;
40599;SDS011;26309;50.924;4.754;2023-03-26T20:06:15;7.00;;;2.60;;
40599;SDS011;26309;50.924;4.754;2023-03-26T20:08:43;14.27;;;2.70;;
40599;SDS011;26309;50.924;4.754;2023-03-26T20:11:15;10.07;;;2.63;;
40599;SDS011;26309;50.924;4.754;2023-03-26T20:13:45;9.93;;;2.53;;
40599;SDS011;26309;50.924;4.754;2023-03-26T20:16:13;10.43;;;2.27;;
40599;SDS011;26309;50.924;4.754;2023-03-26T20:18:53;11.57;;;2.77;;
40599;SDS011;26309;50.924;4.754;2023-03-26T20:21:21;7.90;;;2.47;;
40599;SDS011;26309;50.924;4.754;2023-03-26T20:23:48;8.43;;;2.40;;
40599;SDS011;26309;50.924;4.754;2023-03-26T20:26:18;11.17;;;3.00;;
40599;SDS011;26309;50.924;4.754;2023-03-26T20:28:45;13.97;;;3.00;;
40599;SDS011;26309;50.924;4.754;2023-03-26T20:31:16;10.03;;;2.90;;
40599;SDS011;26309;50.924;4.754;2023-03-26T20:33:49;19.80;;;3.43;;
40599;SDS011;26309;50.924;4.754;2023-03-26T20:36:16;8.40;;;2.30;;
40599;SDS011;26309;50.924;4.754;2023-03-26T20:38:43;13.00;;;2.47;;
40599;SDS011;26309;50.924;4.754;2023-03-26T20:41:17;8.17;;;2.20;;
40599;SDS011;26309;50.924;4.754;2023-03-26T20:43:47;13.53;;;2.80;;
40599;SDS011;26309;50.924;4.754;2023-03-26T20:46:18;9.33;;;2.50;;
40599;SDS011;26309;50.924;4.754;2023-03-26T20:48:46;13.47;;;2.60;;
40599;SDS011;26309;50.924;4.754;2023-03-26T20:51:12;8.47;;;2.73;;
40599;SDS011;26309;50.924;4.754;2023-03-26T20:53:39;15.73;;;2.53;;
40599;SDS011;26309;50.924;4.754;2023-03-26T20:56:14;10.13;;;2.70;;
40599;SDS011;26309;50.924;4.754;2023-03-26T20:58:42;12.07;;;2.60;;
40599;SDS011;26309;50.924;4.754;2023-03-26T21:01:09;10.93;;;2.77;;
40599;SDS011;26309;50.924;4.754;2023-03-26T21:03:37;10.10;;;2.57;;
40599;SDS011;26309;50.924;4.754;2023-03-26T21:06:04;13.43;;;2.50;;
40599;SDS011;26309;50.924;4.754;2023-03-26T21:08:37;10.40;;;2.60;;
40599;SDS011;26309;50.924;4.754;2023-03-26T21:11:09;8.40;;;2.83;;
40599;SDS011;26309;50.924;4.754;2023-03-26T21:14:13;9.90;;;2.37;;
40599;SDS011;26309;50.924;4.754;2023-03-26T21:16:49;7.70;;;2.57;;
40599;SDS011;26309;50.924;4.754;2023-03-26T21:19:16;8.83;;;2.00;;
40599;SDS011;26309;50.924;4.754;2023-03-26T21:30:12;18.00;;;2.60;;
40599;SDS011;26309;50.924;4.754;2023-03-26T21:32:40;7.60;;;2.53;;